Time;durP1;ratioP1;P1;durP2;ratioP2;P2;SDS_P1;SDS_P2;PMS_P1;PMS_P2;Temp;Humidity;BMP_temperature;BMP_pressure;BME280_temperature;BME280_humidity;BME280_pressure;Samples;Min_cycle;Max_cycle;Signal;HPM_P1;HPM_P2
2022/03/22 00:00:33;;;;;;;35.83;8.65;;;;;;;4.74;100.00;99465.47;4981734;28;20042;-57
2022/03/22 00:02:58;;;;;;;31.27;8.70;;;;;;;4.81;100.00;99470.69;4983898;28;20038;-56
2022/03/22 00:05:24;;;;;;;34.80;10.57;;;;;;;4.64;100.00;99474.91;4980137;28;20029;-56
2022/03/22 00:07:50;;;;;;;31.35;8.95;;;;;;;5.02;100.00;99474.28;4985458;28;20373;-56
2022/03/22 00:10:16;;;;;;;31.70;9.38;;;;;;;4.99;100.00;99471.66;4983786;28;20025;-54
2022/03/22 00:12:42;;;;;;;39.75;10.40;;;;;;;4.65;100.00;99474.06;4987184;28;20011;-55
2022/03/22 00:15:08;;;;;;;35.15;10.70;;;;;;;4.42;100.00;99472.16;4981811;28;20410;-56
2022/03/22 00:17:34;;;;;;;41.83;11.82;;;;;;;4.23;100.00;99467.72;4980235;28;20401;-54
2022/03/22 00:20:00;;;;;;;34.97;8.88;;;;;;;4.47;100.00;99468.72;4980551;28;20030;-55
2022/03/22 00:22:27;;;;;;;36.92;11.93;;;;;;;4.00;100.00;99470.94;4985341;28;20050;-56
2022/03/22 00:24:54;;;;;;;48.30;11.38;;;;;;;4.25;100.00;99472.03;4981962;28;20036;-55
2022/03/22 00:27:19;;;;;;;40.25;11.85;;;;;;;4.26;100.00;99475.47;4982525;28;20046;-56
2022/03/22 00:29:45;;;;;;;32.42;9.52;;;;;;;4.59;100.00;99474.84;4984162;28;20026;-56
2022/03/22 00:32:10;;;;;;;40.47;12.35;;;;;;;4.38;100.00;99473.00;4980279;28;20035;-57
2022/03/22 00:34:44;;;;;;;36.47;10.35;;;;;;;4.20;100.00;99475.44;4982931;28;20021;-55
2022/03/22 00:37:11;;;;;;;36.22;10.93;;;;;;;4.07;100.00;99471.03;4981484;28;21139;-55
2022/03/22 00:39:37;;;;;;;35.55;9.93;;;;;;;4.03;100.00;99477.88;4988252;28;20025;-56
2022/03/22 00:42:02;;;;;;;35.35;10.45;;;;;;;4.10;100.00;99474.50;4984655;28;20074;-56
2022/03/22 00:44:27;;;;;;;38.83;11.75;;;;;;;3.98;100.00;99472.66;4982630;28;20032;-56
2022/03/22 00:46:53;;;;;;;44.05;11.73;;;;;;;3.89;100.00;99475.16;4979929;28;20720;-56
2022/03/22 00:49:19;;;;;;;37.13;9.90;;;;;;;3.85;100.00;99482.00;4982464;28;20032;-55
2022/03/22 00:51:44;;;;;;;34.38;9.98;;;;;;;3.99;100.00;99476.13;4980495;28;20034;-57
2022/03/22 00:54:10;;;;;;;40.42;11.85;;;;;;;4.10;100.00;99477.09;4978480;28;20026;-56
2022/03/22 00:56:35;;;;;;;35.45;10.55;;;;;;;3.91;100.00;99477.75;4978735;28;20041;-56
2022/03/22 01:01:44;;;;;;;33.70;10.32;;;;;;;4.03;100.00;99472.72;4984760;28;20080;-55
2022/03/22 01:04:09;;;;;;;42.25;12.45;;;;;;;3.58;100.00;99473.97;4981608;28;20018;-56
2022/03/22 01:06:35;;;;;;;35.30;11.05;;;;;;;3.60;100.00;99475.75;4980745;28;20498;-57
2022/03/22 01:09:00;;;;;;;39.83;11.32;;;;;;;3.39;100.00;99475.50;4981840;28;20063;-57
2022/03/22 01:11:26;;;;;;;37.28;11.00;;;;;;;3.45;100.00;99478.13;4979910;28;20073;-56
2022/03/22 01:13:51;;;;;;;39.65;11.30;;;;;;;3.48;100.00;99473.88;4978502;28;20030;-57
2022/03/22 01:16:16;;;;;;;40.20;11.93;;;;;;;3.32;100.00;99471.97;4981694;28;20034;-56
2022/03/22 01:18:42;;;;;;;41.45;12.27;;;;;;;3.37;100.00;99469.47;4984209;28;20030;-57
2022/03/22 01:21:08;;;;;;;39.08;11.27;;;;;;;3.14;100.00;99475.19;4983322;28;20038;-56
2022/03/22 01:23:34;;;;;;;40.45;11.77;;;;;;;3.01;100.00;99469.00;4979319;28;20030;-57
2022/03/22 01:25:59;;;;;;;33.10;10.20;;;;;;;3.09;100.00;99474.28;4980413;28;20076;-57
2022/03/22 01:28:24;;;;;;;48.83;12.73;;;;;;;3.07;100.00;99471.69;4986828;28;20022;-57
2022/03/22 01:30:49;;;;;;;37.33;11.63;;;;;;;3.04;100.00;99475.94;4984660;28;20042;-55
2022/03/22 01:33:15;;;;;;;45.28;12.50;;;;;;;3.15;100.00;99469.19;4984245;28;20030;-57
2022/03/22 01:35:42;;;;;;;38.10;11.13;;;;;;;3.05;100.00;99464.75;4977646;28;20132;-55
2022/03/22 01:38:07;;;;;;;39.63;11.45;;;;;;;2.80;100.00;99458.44;4981361;28;20029;-57
2022/03/22 01:40:34;;;;;;;45.58;11.48;;;;;;;2.87;100.00;99467.97;4981428;28;20111;-56
2022/03/22 01:43:00;;;;;;;42.10;11.38;;;;;;;2.89;100.00;99466.28;4981759;28;20030;-57
2022/03/22 01:45:25;;;;;;;36.35;10.93;;;;;;;2.89;100.00;99469.72;4979240;28;20025;-57
2022/03/22 01:47:52;;;;;;;46.60;12.38;;;;;;;2.67;100.00;99460.81;4982072;28;20117;-55
2022/03/22 01:50:19;;;;;;;36.63;11.20;;;;;;;2.71;100.00;99461.75;4985158;28;20034;-55
2022/03/22 01:52:45;;;;;;;42.17;11.77;;;;;;;2.93;100.00;99462.91;4985412;28;20110;-56
2022/03/22 01:55:15;;;;;;;33.85;10.07;;;;;;;2.97;100.00;99453.50;4979442;28;20030;-55
2022/03/22 01:57:40;;;;;;;41.08;11.10;;;;;;;2.90;100.00;99452.53;4982686;28;20026;-56
2022/03/22 02:00:14;;;;;;;36.58;10.43;;;;;;;2.90;100.00;99447.38;4983878;28;20045;-54
2022/03/22 02:08:12;;;;;;;37.60;11.10;;;;;;;2.93;100.00;99446.56;4981731;28;20037;-57
2022/03/22 02:10:38;;;;;;;38.80;11.13;;;;;;;2.84;100.00;99448.16;4980912;28;20131;-56
2022/03/22 02:13:04;;;;;;;39.38;10.43;;;;;;;2.78;100.00;99439.50;4984486;28;20660;-57
2022/03/22 02:15:29;;;;;;;38.85;11.55;;;;;;;2.72;100.00;99441.97;4979485;28;20054;-57
2022/03/22 02:17:55;;;;;;;39.30;10.73;;;;;;;2.99;100.00;99438.91;4982527;28;20536;-58
2022/03/22 02:20:21;;;;;;;37.83;10.48;;;;;;;3.02;100.00;99441.53;4985094;28;20829;-58
2022/03/22 02:23:03;;;;;;;44.05;10.82;;;;;;;2.96;100.00;99441.44;4981740;28;20021;-56
2022/03/22 02:25:28;;;;;;;34.58;10.30;;;;;;;3.01;100.00;99434.63;4980757;28;20045;-55
2022/03/22 02:27:54;;;;;;;38.33;10.43;;;;;;;2.99;100.00;99436.34;4983749;28;20026;-56
2022/03/22 02:30:20;;;;;;;36.42;10.75;;;;;;;2.87;100.00;99437.91;4983761;28;20062;-56
2022/03/22 02:32:55;;;;;;;40.03;10.32;;;;;;;2.74;100.00;99441.19;4983460;28;20382;-57
2022/03/22 02:35:23;;;;;;;38.90;10.63;;;;;;;2.98;100.00;99444.91;4983875;28;20142;-56
2022/03/22 02:37:49;;;;;;;41.20;11.00;;;;;;;2.57;100.00;99433.19;4986780;28;20022;-57
2022/03/22 02:40:15;;;;;;;32.40;9.95;;;;;;;2.75;100.00;99435.16;4988594;28;20095;-57
2022/03/22 02:42:46;;;;;;;44.05;11.30;;;;;;;2.84;100.00;99430.13;4983902;28;20026;-57
2022/03/22 02:45:12;;;;;;;44.13;11.00;;;;;;;2.69;100.00;99429.94;4982450;28;20031;-56
2022/03/22 02:47:39;;;;;;;38.22;11.02;;;;;;;2.64;100.00;99429.00;4985448;28;20014;-57
2022/03/22 02:50:06;;;;;;;48.97;11.48;;;;;;;2.72;100.00;99427.41;4982843;28;20034;-57
2022/03/22 02:52:31;;;;;;;33.97;10.15;;;;;;;2.61;100.00;99427.25;4982960;28;20007;-57
2022/03/22 02:54:57;;;;;;;47.60;11.32;;;;;;;2.75;100.00;99432.59;4982663;28;20029;-55
2022/03/22 02:57:22;;;;;;;38.42;9.82;;;;;;;2.80;100.00;99435.25;4984684;28;20034;-57
2022/03/22 02:59:48;;;;;;;42.13;10.18;;;;;;;2.85;100.00;99434.44;4984617;28;20489;-54
2022/03/22 03:02:13;;;;;;;48.38;10.60;;;;;;;2.82;100.00;99436.97;4984553;28;20049;-54
2022/03/22 03:04:38;;;;;;;41.20;10.60;;;;;;;2.76;100.00;99436.91;4983664;28;20118;-56
2022/03/22 03:07:04;;;;;;;35.97;9.75;;;;;;;2.65;87.17;99430.75;4987686;28;20690;-56
2022/03/22 03:09:29;;;;;;;33.63;9.02;;;;;;;2.99;99.50;99428.59;4986182;28;20046;-55
2022/03/22 03:11:54;;;;;;;32.25;9.55;;;;;;;3.00;90.20;99422.63;4983506;28;20042;-55
2022/03/22 03:14:38;;;;;;;36.88;9.63;;;;;;;2.81;83.74;99427.53;4985515;28;20088;-56
2022/03/22 03:17:05;;;;;;;41.17;10.38;;;;;;;2.87;89.33;99426.75;4985153;28;20037;-56
2022/03/22 03:19:30;;;;;;;41.30;10.50;;;;;;;2.86;86.60;99436.16;4985798;28;20058;-54
2022/03/22 03:21:55;;;;;;;38.75;9.80;;;;;;;2.92;88.79;99432.81;4986925;28;20463;-56
2022/03/22 03:24:21;;;;;;;38.55;9.70;;;;;;;2.93;95.30;99431.09;4981889;28;20041;-57
2022/03/22 03:26:46;;;;;;;46.17;10.02;;;;;;;2.92;96.24;99437.97;4987785;28;20742;-56
2022/03/22 03:29:11;;;;;;;38.10;9.52;;;;;;;2.86;88.19;99428.44;4985124;28;20118;-55
2022/03/22 03:31:37;;;;;;;41.85;10.27;;;;;;;3.23;100.00;99436.63;4985849;28;20122;-55
2022/03/22 03:34:02;;;;;;;34.67;9.32;;;;;;;3.21;100.00;99433.16;4985285;28;20022;-55
2022/03/22 03:36:28;;;;;;;34.15;10.13;;;;;;;2.73;94.24;99436.84;4981924;28;20080;-56
2022/03/22 03:38:53;;;;;;;30.75;8.00;;;;;;;2.92;100.00;99442.25;4985612;28;20738;-56
2022/03/22 03:47:03;;;;;;;34.67;9.77;;;;;;;2.94;100.00;99436.28;4983438;28;20047;-56
2022/03/22 03:49:37;;;;;;;39.75;10.18;;;;;;;2.75;96.34;99436.88;4984899;28;20049;-55
2022/03/22 03:52:04;;;;;;;35.92;8.93;;;;;;;2.93;100.00;99449.16;4982912;28;20038;-56
2022/03/22 03:54:29;;;;;;;36.08;10.20;;;;;;;2.79;100.00;99441.22;4987202;28;20022;-56
2022/03/22 03:56:55;;;;;;;32.58;8.50;;;;;;;2.78;100.00;99439.50;4983074;28;20670;-56
2022/03/22 03:59:20;;;;;;;29.10;7.78;;;;;;;3.01;100.00;99439.78;4986217;28;20038;-55
2022/03/22 04:01:46;;;;;;;37.30;7.78;;;;;;;3.13;100.00;99439.94;4981724;28;20038;-55
2022/03/22 04:04:11;;;;;;;33.38;8.52;;;;;;;2.91;100.00;99448.28;4986002;28;20060;-56
2022/03/22 04:06:37;;;;;;;38.03;9.82;;;;;;;3.15;100.00;99448.56;4981896;28;20944;-56
2022/03/22 04:09:02;;;;;;;36.38;9.55;;;;;;;2.90;96.83;99442.22;4980726;28;20034;-55
2022/03/22 04:11:27;;;;;;;38.50;9.65;;;;;;;3.08;100.00;99442.47;4982869;28;20169;-54
2022/03/22 04:13:53;;;;;;;38.00;9.75;;;;;;;3.05;100.00;99438.97;4980981;28;20034;-55
2022/03/22 04:16:18;;;;;;;30.67;8.02;;;;;;;3.15;100.00;99445.97;4980026;28;20524;-57
2022/03/22 04:18:43;;;;;;;30.55;8.25;;;;;;;3.27;100.00;99443.56;4988062;28;20772;-55
2022/03/22 04:21:09;;;;;;;29.25;8.43;;;;;;;3.06;100.00;99438.13;4980209;28;20591;-55
2022/03/22 04:23:34;;;;;;;33.63;9.38;;;;;;;3.03;92.61;99443.25;4980735;28;20032;-55
2022/03/22 04:26:00;;;;;;;42.78;9.73;;;;;;;3.02;96.93;99447.56;4981780;28;20054;-56
2022/03/22 04:33:54;;;;;;;40.58;9.55;;;;;;;3.16;89.94;99455.47;4984774;28;20033;-55
2022/03/22 04:36:20;;;;;;;38.83;9.52;;;;;;;3.10;84.77;99455.38;4981831;28;20043;-56
2022/03/22 04:38:45;;;;;;;38.65;9.07;;;;;;;3.21;86.97;99461.53;4985790;28;20075;-56
2022/03/22 04:41:10;;;;;;;33.45;9.43;;;;;;;3.09;84.31;99456.25;4987832;28;20065;-54
2022/03/22 04:43:36;;;;;;;37.30;8.88;;;;;;;3.25;86.14;99459.84;4981503;28;20030;-54
2022/03/22 04:46:01;;;;;;;40.20;9.82;;;;;;;3.18;87.21;99469.25;4980157;28;20042;-56
2022/03/22 04:48:27;;;;;;;31.50;9.65;;;;;;;3.07;81.59;99461.38;4982449;28;20022;-57
2022/03/22 04:56:43;;;;;;;37.72;8.73;;;;;;;3.06;82.52;99469.94;4984956;28;20034;-56
2022/03/22 04:59:06;;;;;;;35.42;8.70;;;;;;;3.37;87.90;99469.47;4980868;28;20045;-55
2022/03/22 05:01:31;;;;;;;43.72;10.32;;;;;;;3.12;79.26;99466.56;4984834;28;20038;-56
2022/03/22 05:03:56;;;;;;;31.55;9.10;;;;;;;3.22;85.88;99465.84;4984451;28;20467;-56
2022/03/22 05:06:28;;;;;;;42.58;9.88;;;;;;;3.13;86.94;99470.03;4977840;28;20534;-55
2022/03/22 05:08:54;;;;;;;38.05;9.43;;;;;;;2.74;72.66;99472.09;4980369;28;20031;-55
2022/03/22 05:11:20;;;;;;;33.90;9.10;;;;;;;2.86;78.31;99477.41;4983234;28;20099;-55
2022/03/22 05:13:46;;;;;;;41.95;9.90;;;;;;;2.86;75.70;99479.97;4980404;28;20037;-56
2022/03/22 05:16:12;;;;;;;40.67;9.70;;;;;;;2.96;75.30;99474.94;4982441;28;20136;-56
2022/03/22 05:18:37;;;;;;;42.95;10.25;;;;;;;2.55;71.18;99470.94;4983189;28;20136;-56
2022/03/22 05:21:06;;;;;;;32.20;9.18;;;;;;;2.98;74.97;99476.72;4978246;28;20049;-56
2022/03/22 05:23:36;;;;;;;43.17;9.95;;;;;;;3.07;74.06;99475.97;4978004;28;20030;-56
2022/03/22 05:26:03;;;;;;;35.28;9.77;;;;;;;3.09;79.19;99477.72;4983978;28;20078;-56
2022/03/22 05:28:29;;;;;;;32.78;9.73;;;;;;;3.03;74.40;99480.22;4983384;28;20901;-55
2022/03/22 05:30:54;;;;;;;40.88;9.40;;;;;;;3.13;68.76;99481.19;4983542;28;20559;-55
2022/03/22 05:33:20;;;;;;;39.42;9.80;;;;;;;2.87;64.79;99478.28;4981737;28;20054;-54
2022/03/22 05:35:45;;;;;;;40.25;10.15;;;;;;;3.13;65.29;99481.19;4979734;28;20510;-56
2022/03/22 05:38:10;;;;;;;42.33;10.30;;;;;;;4.78;66.54;99481.03;4981281;28;20022;-56
2022/03/22 05:40:36;;;;;;;36.25;9.05;;;;;;;4.90;58.73;99484.53;4979373;28;20654;-55
2022/03/22 05:43:01;;;;;;;30.40;8.77;;;;;;;5.06;56.15;99476.00;4983181;28;20026;-57
2022/03/22 05:45:27;;;;;;;35.55;9.18;;;;;;;5.12;55.10;99473.44;4985878;28;20126;-58
2022/03/22 05:47:53;;;;;;;36.92;9.43;;;;;;;6.41;55.86;99466.81;4982352;28;20104;-56
2022/03/22 05:50:19;;;;;;;36.38;9.65;;;;;;;5.80;51.59;99476.25;4977579;28;20108;-55
2022/03/22 05:52:46;;;;;;;31.60;9.02;;;;;;;7.04;50.53;99474.47;4979289;28;20113;-55
2022/03/22 05:55:12;;;;;;;36.05;10.13;;;;;;;7.29;48.66;99470.91;4976858;28;20045;-59
2022/03/22 05:57:37;;;;;;;32.47;9.80;;;;;;;6.19;49.17;99477.19;4982283;28;20709;-57
2022/03/22 06:00:08;;;;;;;30.58;9.40;;;;;;;6.49;51.34;99478.06;4979613;28;20029;-55
2022/03/22 06:02:40;;;;;;;33.08;9.40;;;;;;;7.53;48.90;99475.16;4982758;28;20504;-55
2022/03/22 06:05:11;;;;;;;38.85;9.68;;;;;;;7.64;47.06;99480.28;4983414;28;20023;-55
2022/03/22 06:07:37;;;;;;;47.92;11.25;;;;;;;6.91;48.52;99479.72;4979434;28;20046;-56
2022/03/22 06:10:03;;;;;;;42.00;10.95;;;;;;;7.38;46.54;99483.00;4981707;28;20038;-56
2022/03/22 06:12:41;;;;;;;31.08;9.85;;;;;;;9.55;43.66;99469.88;4982660;28;20088;-56
2022/03/22 06:15:16;;;;;;;34.90;9.73;;;;;;;9.67;45.75;99472.31;4983073;28;20030;-56
2022/03/22 06:17:46;;;;;;;40.25;9.90;;;;;;;8.25;44.64;99479.03;4984814;28;20043;-55
2022/03/22 06:20:11;;;;;;;31.45;10.13;;;;;;;8.78;44.08;99481.19;4987251;28;20034;-57
2022/03/22 06:22:37;;;;;;;33.53;10.05;;;;;;;8.61;43.17;99487.41;4985694;28;20491;-57
2022/03/22 06:25:03;;;;;;;33.17;9.70;;;;;;;9.98;43.92;99483.16;4983601;28;20073;-57
2022/03/22 06:27:28;;;;;;;24.77;9.20;;;;;;;8.28;43.34;99496.31;4984849;28;20109;-57
2022/03/22 06:29:54;;;;;;;30.58;9.48;;;;;;;10.56;40.70;99489.22;4987601;28;20146;-57
2022/03/22 06:32:19;;;;;;;33.42;10.05;;;;;;;9.32;41.75;99486.66;4983146;28;20602;-56
2022/03/22 06:34:47;;;;;;;39.00;10.57;;;;;;;8.86;42.03;99492.38;4986119;28;20177;-55
2022/03/22 06:37:12;;;;;;;32.90;9.82;;;;;;;8.23;42.39;99488.56;4982612;28;20035;-56
2022/03/22 06:39:38;;;;;;;30.60;10.40;;;;;;;8.12;42.30;99492.97;4988178;28;20037;-55
2022/03/22 06:42:04;;;;;;;32.17;10.68;;;;;;;10.95;38.83;99496.38;4989332;28;20041;-59
2022/03/22 06:44:29;;;;;;;35.75;10.65;;;;;;;11.22;37.90;99492.38;4986046;28;20026;-58
2022/03/22 06:46:55;;;;;;;28.42;9.82;;;;;;;11.74;37.74;99486.06;4984933;28;20409;-53
2022/03/22 06:49:22;;;;;;;30.33;9.73;;;;;;;11.97;38.19;99495.19;4983799;28;20030;-55
2022/03/22 06:51:47;;;;;;;31.65;10.45;;;;;;;12.42;36.62;99497.59;4987509;28;20469;-56
2022/03/22 06:54:13;;;;;;;30.35;11.30;;;;;;;16.06;35.15;99486.06;4986706;28;20734;-56
2022/03/22 06:56:39;;;;;;;30.33;9.82;;;;;;;15.03;32.07;99496.88;4984576;28;20712;-56
2022/03/22 06:59:05;;;;;;;30.45;9.88;;;;;;;13.60;34.58;99490.97;4982959;28;20065;-56
2022/03/22 07:01:31;;;;;;;28.08;9.95;;;;;;;16.89;31.64;99486.16;4983287;28;20058;-57
2022/03/22 07:03:57;;;;;;;27.58;9.45;;;;;;;16.71;30.88;99498.31;4985175;28;20719;-55
2022/03/22 07:06:22;;;;;;;26.52;9.82;;;;;;;16.94;29.74;99499.13;4987831;28;20045;-57
2022/03/22 07:08:47;;;;;;;23.58;9.48;;;;;;;15.66;30.27;99498.97;4983968;28;20027;-57
2022/03/22 07:13:57;;;;;;;24.27;9.60;;;;;;;18.28;28.58;99499.16;4985914;28;20593;-57
2022/03/22 07:16:24;;;;;;;24.08;9.25;;;;;;;16.25;29.28;99500.22;4986520;28;20532;-57
2022/03/22 07:18:50;;;;;;;22.85;9.82;;;;;;;19.30;25.79;99501.97;4985715;28;20083;-57
2022/03/22 07:21:15;;;;;;;22.48;9.20;;;;;;;19.22;26.88;99499.72;4984115;28;20129;-58
2022/03/22 07:23:41;;;;;;;27.55;10.00;;;;;;;18.88;26.38;99493.56;4981969;28;20153;-57
2022/03/22 07:26:06;;;;;;;20.98;9.60;;;;;;;19.04;27.18;99503.31;4982336;28;20038;-56
2022/03/22 07:28:32;;;;;;;18.67;8.70;;;;;;;20.40;26.20;99500.34;4986644;28;20026;-57
2022/03/22 07:30:58;;;;;;;24.25;9.23;;;;;;;21.13;23.92;99504.91;4984515;28;20076;-57
2022/03/22 07:33:23;;;;;;;24.23;9.38;;;;;;;21.51;24.67;99493.78;4984904;28;20109;-56
2022/03/22 07:35:49;;;;;;;21.05;9.05;;;;;;;17.65;26.51;99506.53;4982444;28;20455;-58
2022/03/22 07:38:14;;;;;;;21.95;9.13;;;;;;;20.54;24.64;99502.19;4982530;28;20040;-56
2022/03/22 07:40:39;;;;;;;19.38;9.07;;;;;;;18.08;26.82;99504.53;4985388;28;20034;-59
2022/03/22 07:43:05;;;;;;;20.23;9.02;;;;;;;17.57;26.38;99513.94;4981539;28;20503;-57
2022/03/22 07:45:31;;;;;;;17.38;8.18;;;;;;;18.70;26.18;99512.97;4983083;28;20040;-57
2022/03/22 07:47:56;;;;;;;23.58;9.10;;;;;;;19.88;24.99;99502.44;4985098;28;20022;-57
2022/03/22 07:53:06;;;;;;;22.58;9.40;;;;;;;18.88;25.77;99505.94;4979240;28;20037;-57
2022/03/22 07:55:37;;;;;;;20.48;8.93;;;;;;;18.26;26.12;99498.38;4984339;28;20038;-57
2022/03/22 07:58:05;;;;;;;26.38;9.63;;;;;;;20.57;24.47;99507.31;4985760;28;20148;-58
2022/03/22 08:00:34;;;;;;;22.83;9.55;;;;;;;19.80;24.44;99509.00;4985855;28;20042;-55
2022/03/22 08:03:03;;;;;;;19.95;9.07;;;;;;;23.49;22.15;99505.56;4982615;28;20480;-57
2022/03/22 08:05:29;;;;;;;17.92;8.95;;;;;;;17.57;25.40;99503.38;4978692;28;20046;-58
2022/03/22 08:07:55;;;;;;;20.58;9.40;;;;;;;21.96;23.22;99504.22;4982087;28;20149;-59
2022/03/22 08:10:21;;;;;;;17.35;8.82;;;;;;;20.66;23.93;99505.09;4984180;28;20042;-56
2022/03/22 08:12:46;;;;;;;18.85;8.98;;;;;;;20.08;24.35;99510.13;4984788;28;20033;-58
2022/03/22 08:15:13;;;;;;;20.95;8.93;;;;;;;18.60;24.63;99511.69;4979526;28;20057;-58
2022/03/22 08:17:39;;;;;;;19.67;8.93;;;;;;;20.55;23.62;99503.91;4985402;28;20515;-56
2022/03/22 08:20:08;;;;;;;22.83;8.52;;;;;;;18.21;26.04;99510.09;4983651;28;20018;-55
2022/03/22 08:22:54;;;;;;;21.85;8.82;;;;;;;21.25;22.91;99503.31;4982456;28;20025;-57
2022/03/22 08:25:32;;;;;;;22.73;8.98;;;;;;;20.35;24.37;99509.50;4981471;28;20033;-56
2022/03/22 08:28:00;;;;;;;19.02;8.80;;;;;;;19.62;23.70;99504.69;4986989;28;20065;-56
2022/03/22 08:30:26;;;;;;;19.30;8.60;;;;;;;17.47;25.45;99513.50;4984973;28;20034;-56
2022/03/22 08:32:55;;;;;;;18.35;9.13;;;;;;;21.21;22.71;99495.63;4985884;28;20029;-58
2022/03/22 08:35:23;;;;;;;21.02;8.70;;;;;;;23.26;21.51;99497.38;4979905;28;20121;-58
2022/03/22 08:37:49;;;;;;;18.23;8.75;;;;;;;19.01;24.45;99498.22;4980802;28;20018;-59
2022/03/22 08:40:16;;;;;;;19.98;9.25;;;;;;;19.18;24.55;99497.34;4981331;28;20089;-56
2022/03/22 08:42:45;;;;;;;19.90;9.13;;;;;;;20.32;23.76;99491.13;4983187;28;20018;-58
2022/03/22 08:45:12;;;;;;;21.58;8.98;;;;;;;19.61;24.43;99484.44;4982910;28;20034;-59
2022/03/22 08:47:40;;;;;;;20.80;8.48;;;;;;;19.21;24.46;99491.88;4981682;28;20356;-57
2022/03/22 08:50:09;;;;;;;17.95;8.73;;;;;;;22.82;22.09;99487.94;4982248;28;20023;-57
2022/03/22 08:52:35;;;;;;;21.40;9.63;;;;;;;22.08;22.74;99476.88;4980755;28;20719;-56
2022/03/22 08:55:01;;;;;;;23.85;8.98;;;;;;;22.05;22.85;99477.06;4982369;28;20030;-59
2022/03/22 08:57:26;;;;;;;16.60;8.13;;;;;;;20.06;23.41;99482.88;4985253;28;20040;-58
2022/03/22 08:59:52;;;;;;;16.50;8.45;;;;;;;21.16;22.91;99482.66;4984669;28;20033;-58
2022/03/22 09:02:17;;;;;;;18.25;8.85;;;;;;;18.07;25.03;99476.44;4982737;28;20046;-58
2022/03/22 09:07:26;;;;;;;19.83;8.05;;;;;;;21.06;23.45;99470.88;4980345;28;20090;-57
2022/03/22 09:09:52;;;;;;;17.90;8.63;;;;;;;19.45;24.52;99476.50;4984175;28;20025;-59
2022/03/22 09:12:17;;;;;;;15.05;7.97;;;;;;;19.79;24.13;99467.56;4979150;28;20360;-58
2022/03/22 09:14:42;;;;;;;22.73;8.85;;;;;;;20.71;24.10;99465.91;4984243;28;20065;-58
2022/03/22 09:17:08;;;;;;;19.73;8.82;;;;;;;19.46;25.00;99467.59;4983890;28;20273;-59
2022/03/22 09:19:36;;;;;;;18.55;8.57;;;;;;;20.38;23.63;99461.59;4980482;28;20037;-58
2022/03/22 09:22:05;;;;;;;16.75;8.45;;;;;;;20.57;24.86;99464.06;4983296;28;20120;-58
2022/03/22 09:24:36;;;;;;;19.70;8.55;;;;;;;20.13;24.35;99463.03;4985099;28;20298;-58
2022/03/22 09:27:02;;;;;;;18.35;8.30;;;;;;;21.10;23.30;99457.34;4981754;28;20354;-58
2022/03/22 09:29:27;;;;;;;21.80;8.27;;;;;;;19.37;24.96;99461.03;4982485;28;20429;-58
2022/03/22 09:31:53;;;;;;;18.80;8.68;;;;;;;22.34;22.05;99461.06;4982254;28;20065;-58
2022/03/22 09:34:18;;;;;;;17.92;8.23;;;;;;;21.16;23.44;99456.13;4978577;28;20370;-57
2022/03/22 09:36:44;;;;;;;17.70;7.82;;;;;;;22.46;22.77;99460.25;4983017;28;20030;-57
2022/03/22 09:39:09;;;;;;;16.27;7.72;;;;;;;20.51;23.39;99459.09;4980888;28;20479;-57
2022/03/22 09:41:37;;;;;;;19.58;8.43;;;;;;;21.36;22.71;99442.47;4980903;28;20121;-58
2022/03/22 09:44:03;;;;;;;17.90;8.55;;;;;;;21.62;22.92;99447.13;4980327;28;21143;-57
2022/03/22 09:46:32;;;;;;;17.83;8.05;;;;;;;21.12;23.40;99444.00;4982183;28;20639;-57
2022/03/22 09:48:58;;;;;;;17.77;8.43;;;;;;;21.92;22.63;99438.97;4982706;28;20030;-58
2022/03/22 09:54:07;;;;;;;19.08;8.40;;;;;;;19.61;24.10;99448.25;4982513;28;20188;-59
2022/03/22 09:56:33;;;;;;;19.67;8.13;;;;;;;21.11;22.73;99436.97;4982728;28;20455;-58
2022/03/22 09:59:00;;;;;;;19.42;8.25;;;;;;;19.77;22.99;99448.28;4982241;28;20065;-59
2022/03/22 10:01:25;;;;;;;21.20;8.23;;;;;;;20.81;22.68;99440.56;4982928;28;20038;-58
2022/03/22 10:03:58;;;;;;;22.30;8.07;;;;;;;18.97;24.25;99435.84;4977694;28;20029;-63
2022/03/22 10:06:23;;;;;;;23.98;8.15;;;;;;;19.50;24.09;99433.88;4978191;28;20050;-58
2022/03/22 10:08:50;;;;;;;20.33;7.82;;;;;;;22.46;21.78;99427.47;4982735;28;20033;-58
2022/03/22 10:11:17;;;;;;;19.63;8.13;;;;;;;23.74;21.22;99426.56;4979078;28;20067;-56
2022/03/22 10:13:56;;;;;;;22.58;8.25;;;;;;;20.03;22.90;99433.56;4978014;28;20456;-56
2022/03/22 10:16:22;;;;;;;22.05;8.50;;;;;;;21.70;21.92;99421.75;4979724;28;20100;-57
2022/03/22 10:18:48;;;;;;;23.95;8.18;;;;;;;21.08;22.63;99414.16;4982202;28;20749;-57
2022/03/22 10:21:13;;;;;;;21.00;7.70;;;;;;;20.51;23.00;99417.56;4980608;28;20153;-56
2022/03/22 10:23:55;;;;;;;20.98;8.65;;;;;;;20.38;22.95;99414.78;4980034;28;20030;-55
2022/03/22 10:26:21;;;;;;;20.27;7.68;;;;;;;22.44;21.58;99413.44;4981617;28;20034;-56
2022/03/22 10:28:54;;;;;;;19.00;7.40;;;;;;;21.45;21.58;99418.97;4985114;28;20045;-57
2022/03/22 10:31:31;;;;;;;16.63;6.90;;;;;;;21.03;21.29;99407.44;4980164;28;20081;-57
2022/03/22 10:33:57;;;;;;;20.52;7.50;;;;;;;20.44;21.90;99415.34;4982181;28;20037;-57
2022/03/22 10:36:22;;;;;;;19.80;7.30;;;;;;;20.59;22.38;99410.00;4978282;28;20043;-57
2022/03/22 10:39:01;;;;;;;20.20;7.50;;;;;;;20.76;22.32;99408.16;4976209;28;20042;-57
2022/03/22 10:41:29;;;;;;;21.67;7.05;;;;;;;20.97;21.10;99392.72;4983214;28;20501;-57
2022/03/22 10:44:23;;;;;;;16.38;7.05;;;;;;;19.52;22.59;99400.25;4983935;28;20058;-57
2022/03/22 10:46:49;;;;;;;23.55;7.82;;;;;;;21.04;22.12;99382.59;4980690;28;20501;-58
2022/03/22 10:49:16;;;;;;;19.33;7.00;;;;;;;21.33;20.57;99391.38;4986437;28;20033;-57
2022/03/22 10:51:44;;;;;;;20.38;6.93;;;;;;;21.49;20.28;99384.19;4984722;28;20069;-57
2022/03/22 10:54:12;;;;;;;19.17;7.30;;;;;;;20.38;21.25;99387.41;4983499;28;20789;-57
2022/03/22 10:56:47;;;;;;;21.83;7.40;;;;;;;18.65;22.60;99394.25;4982131;28;20027;-57
2022/03/22 10:59:14;;;;;;;22.80;7.13;;;;;;;20.59;20.22;99391.44;4986604;28;20054;-56
2022/03/22 11:01:44;;;;;;;18.25;6.40;;;;;;;19.69;20.42;99381.66;4984912;28;20168;-57
2022/03/22 11:04:11;;;;;;;17.90;6.45;;;;;;;21.42;19.08;99382.00;4984104;28;20034;-56
2022/03/22 11:06:38;;;;;;;22.17;6.65;;;;;;;21.12;19.24;99388.28;4986095;28;20092;-57
2022/03/22 11:09:04;;;;;;;17.98;6.45;;;;;;;20.07;20.70;99386.59;4984807;28;20108;-59
2022/03/22 11:11:31;;;;;;;20.30;6.30;;;;;;;19.84;19.99;99379.94;4987410;28;20121;-57
2022/03/22 11:13:57;;;;;;;20.88;6.50;;;;;;;20.30;19.74;99371.97;4982681;28;20108;-56
2022/03/22 11:16:28;;;;;;;21.27;6.47;;;;;;;20.24;20.42;99377.63;4981889;28;20570;-56
2022/03/22 11:19:01;;;;;;;20.42;6.90;;;;;;;19.74;20.44;99374.34;4985533;28;20037;-56
2022/03/22 11:21:28;;;;;;;16.52;6.40;;;;;;;20.99;19.50;99369.63;4985123;28;20721;-56
2022/03/22 11:24:07;;;;;;;22.45;6.13;;;;;;;19.26;20.61;99374.31;4986250;28;20031;-58
2022/03/22 11:26:47;;;;;;;19.90;6.65;;;;;;;19.97;20.48;99369.50;4983876;28;20066;-57
2022/03/22 11:29:15;;;;;;;23.75;7.18;;;;;;;19.45;20.50;99363.56;4984136;28;20030;-57
2022/03/22 11:31:42;;;;;;;18.33;6.38;;;;;;;19.31;21.05;99360.81;4982189;28;20034;-58
2022/03/22 11:34:08;;;;;;;16.77;6.20;;;;;;;20.35;20.13;99351.34;4984522;28;20021;-57
2022/03/22 11:36:49;;;;;;;19.20;6.45;;;;;;;20.05;20.23;99350.50;4983712;28;20615;-57
2022/03/22 11:39:19;;;;;;;20.27;6.65;;;;;;;19.17;21.93;99358.06;4983870;28;20548;-56
2022/03/22 11:44:36;;;;;;;30.08;7.50;;;;;;;19.38;21.53;99350.75;4983508;28;20117;-58
2022/03/22 11:47:05;;;;;;;22.08;6.97;;;;;;;18.74;21.73;99360.38;4987044;28;20052;-55
2022/03/22 11:49:45;;;;;;;22.90;6.68;;;;;;;18.52;21.46;99353.53;4983222;28;20018;-56
2022/03/22 11:52:12;;;;;;;25.92;7.20;;;;;;;17.96;22.10;99338.81;4982765;28;20038;-57
2022/03/22 11:54:37;;;;;;;27.40;7.15;;;;;;;17.17;22.80;99346.97;4989184;28;20030;-56
2022/03/22 11:57:04;;;;;;;21.77;7.15;;;;;;;17.77;22.52;99338.84;4978226;28;20042;-57
2022/03/22 11:59:42;;;;;;;26.92;7.18;;;;;;;18.16;22.21;99343.09;4983101;28;20923;-56
2022/03/22 12:02:16;;;;;;;23.52;6.97;;;;;;;17.44;22.63;99339.53;4981713;28;20066;-56